createdAt,value
2018-07-03T00:01:36.569Z,81.81
2018-07-03T00:04:06.090Z,82.69
2018-07-03T00:06:35.460Z,83.09
2018-07-03T00:09:07.413Z,83.94
2018-07-03T00:11:36.828Z,81.48
2018-07-03T00:14:06.458Z,82.87
2018-07-03T00:16:41.514Z,83.96
2018-07-03T00:19:12.046Z,84.60
2018-07-03T00:21:41.340Z,85.61
2018-07-03T00:24:10.662Z,86.17
2018-07-03T00:26:40.016Z,85.63
2018-07-03T00:29:09.478Z,86.49
2018-07-03T00:31:38.807Z,85.36
2018-07-03T00:34:08.168Z,85.78
2018-07-03T00:36:37.519Z,86.40
2018-07-03T00:39:09.144Z,86.05
2018-07-03T00:41:38.423Z,84.58
2018-07-03T00:44:07.849Z,83.82
2018-07-03T00:46:37.118Z,84.49
2018-07-03T00:49:06.498Z,85.07
2018-07-03T00:51:35.802Z,85.86
2018-07-03T00:54:05.231Z,85.94
2018-07-03T00:56:34.630Z,86.52
2018-07-03T00:59:04.171Z,85.91
2018-07-03T01:01:33.621Z,86.51
2018-07-03T01:04:02.936Z,87.24
2018-07-03T01:06:32.335Z,86.40
2018-07-03T01:09:01.802Z,86.63
2018-07-03T01:11:31.285Z,86.93
2018-07-03T01:14:00.630Z,85.34
2018-07-03T01:16:29.962Z,85.03
2018-07-03T01:18:59.364Z,86.27
2018-07-03T01:21:28.673Z,86.00
2018-07-03T01:23:58.074Z,86.56
2018-07-03T01:26:27.414Z,85.39
2018-07-03T01:28:56.855Z,82.44
2018-07-03T01:31:26.165Z,83.32
2018-07-03T01:33:55.426Z,82.51
2018-07-03T01:36:24.811Z,83.30
2018-07-03T01:38:54.171Z,82.54
2018-07-03T01:41:23.707Z,79.82
2018-07-03T01:43:53.235Z,79.45
2018-07-03T01:46:22.515Z,81.71
2018-07-03T01:48:51.884Z,84.07
2018-07-03T01:51:21.189Z,84.39
2018-07-03T01:53:50.503Z,83.89
2018-07-03T01:56:19.945Z,84.55
2018-07-03T01:58:49.256Z,84.24
2018-07-03T02:01:18.659Z,84.98
2018-07-03T02:03:47.943Z,84.69
2018-07-03T02:06:17.306Z,83.46
2018-07-03T02:08:46.637Z,81.78
2018-07-03T02:11:16.035Z,82.63
2018-07-03T02:13:45.126Z,83.69
2018-07-03T02:16:14.408Z,82.06
2018-07-03T02:18:43.737Z,82.74
2018-07-03T02:21:13.058Z,84.54
2018-07-03T02:23:42.351Z,84.84
2018-07-03T02:26:11.694Z,86.18
2018-07-03T02:28:41.047Z,86.66
2018-07-03T02:31:10.403Z,86.56
2018-07-03T02:33:39.743Z,86.54
2018-07-03T02:36:09.044Z,86.34
2018-07-03T02:38:38.401Z,86.63
2018-07-03T02:41:08.438Z,87.22
2018-07-03T02:43:37.908Z,83.85
2018-07-03T02:46:07.542Z,83.80
2018-07-03T02:48:36.956Z,84.86
2018-07-03T02:51:06.310Z,85.98
2018-07-03T02:53:35.527Z,85.89
2018-07-03T02:56:04.958Z,86.34
2018-07-03T02:58:34.320Z,86.96
2018-07-03T03:01:03.691Z,85.93
2018-07-03T03:03:33.047Z,85.92
2018-07-03T03:06:02.419Z,87.01
2018-07-03T03:08:31.715Z,86.50
2018-07-03T03:11:01.088Z,87.10
2018-07-03T03:13:30.508Z,87.25
2018-07-03T03:15:59.953Z,87.00
2018-07-03T03:18:29.443Z,85.83
2018-07-03T03:20:58.810Z,85.96
2018-07-03T03:23:28.233Z,86.86
2018-07-03T03:25:57.558Z,86.94
2018-07-03T03:28:26.871Z,86.65
2018-07-03T03:30:56.205Z,87.14
2018-07-03T03:33:25.736Z,86.70
2018-07-03T03:35:55.098Z,87.07
2018-07-03T03:38:24.660Z,87.11
2018-07-03T03:40:54.029Z,83.38
2018-07-03T03:43:23.394Z,82.01
2018-07-03T03:45:52.870Z,82.76
2018-07-03T03:48:22.337Z,82.84
2018-07-03T03:50:52.226Z,83.39
2018-07-03T03:56:05.686Z,84.66
2018-07-03T03:58:35.090Z,84.27
2018-07-03T04:01:04.576Z,83.38
2018-07-03T04:03:33.977Z,83.53
2018-07-03T04:06:03.389Z,82.91
2018-07-03T04:08:32.792Z,82.33
2018-07-03T04:11:02.271Z,81.97
2018-07-03T04:13:31.773Z,82.63
2018-07-03T04:16:01.408Z,82.26
2018-07-03T04:18:33.425Z,80.67
2018-07-03T04:21:04.524Z,78.04
2018-07-03T04:23:35.019Z,79.19
2018-07-03T04:26:04.636Z,79.67
2018-07-03T04:28:34.726Z,77.69
2018-07-03T04:31:04.319Z,75.68
2018-07-03T04:33:33.711Z,73.02
2018-07-03T04:36:03.123Z,74.38
2018-07-03T04:38:32.498Z,77.58
2018-07-03T04:41:01.925Z,75.18
2018-07-03T04:43:31.541Z,75.84
2018-07-03T04:46:01.186Z,71.73
2018-07-03T04:48:30.721Z,70.76
2018-07-03T04:51:00.143Z,69.92
2018-07-03T04:53:29.727Z,69.15
2018-07-03T04:55:59.229Z,73.01
2018-07-03T04:58:28.840Z,73.43
2018-07-03T05:00:58.436Z,73.99
2018-07-03T05:03:27.822Z,74.22
2018-07-03T05:05:57.167Z,74.40
2018-07-03T05:08:26.518Z,74.22
2018-07-03T05:10:55.807Z,74.10
2018-07-03T05:13:25.250Z,74.93
2018-07-03T05:15:54.716Z,75.31
2018-07-03T05:18:24.230Z,74.23
2018-07-03T05:20:53.688Z,71.45
2018-07-03T05:23:23.140Z,71.02
2018-07-03T05:25:52.487Z,69.87
2018-07-03T05:28:21.970Z,69.31
2018-07-03T05:30:51.340Z,68.92
2018-07-03T05:33:20.861Z,68.41
2018-07-03T05:35:50.319Z,70.63
2018-07-03T05:38:19.723Z,69.63
2018-07-03T05:40:49.134Z,70.07
2018-07-03T05:43:18.743Z,60.17
2018-07-03T05:45:48.188Z,57.54
2018-07-03T05:48:17.700Z,59.94
2018-07-03T05:50:47.083Z,55.51
2018-07-03T05:53:16.983Z,48.75
2018-07-03T05:55:46.554Z,42.33
2018-07-03T05:58:15.875Z,41.22
2018-07-03T06:00:45.253Z,42.41
2018-07-03T06:03:14.643Z,40.39
2018-07-03T06:05:44.272Z,35.58
2018-07-03T06:08:13.513Z,31.36
2018-07-03T06:10:43.002Z,29.46
2018-07-03T06:13:12.411Z,32.21
2018-07-03T06:15:41.940Z,37.48
2018-07-03T06:18:11.431Z,33.92
2018-07-03T06:20:40.768Z,32.77
2018-07-03T06:23:10.192Z,30.24
2018-07-03T06:25:39.583Z,32.26
2018-07-03T06:28:08.984Z,32.98
2018-07-03T06:30:38.335Z,34.69
2018-07-03T06:33:07.826Z,31.77
2018-07-03T06:35:37.582Z,30.17
2018-07-03T06:38:06.972Z,27.99
2018-07-03T06:40:36.280Z,26.52
2018-07-03T06:43:05.677Z,27.45
2018-07-03T06:45:35.059Z,26.31
2018-07-03T06:48:04.410Z,26.55
2018-07-03T06:50:33.733Z,27.07
2018-07-03T06:53:03.087Z,26.39
2018-07-03T06:55:32.410Z,24.13
2018-07-03T06:58:01.771Z,22.66
2018-07-03T07:00:31.143Z,22.86
2018-07-03T07:03:00.518Z,21.58
2018-07-03T07:05:29.974Z,22.42
2018-07-03T07:07:59.441Z,28.06
2018-07-03T07:10:28.762Z,26.68
2018-07-03T07:12:58.090Z,21.81
2018-07-03T07:15:27.506Z,20.66
2018-07-03T07:17:56.840Z,18.94
2018-07-03T07:20:26.242Z,19.51
2018-07-03T07:22:55.653Z,20.67
2018-07-03T07:25:24.996Z,20.74
2018-07-03T07:27:54.322Z,23.19
2018-07-03T07:30:23.748Z,20.94
2018-07-03T07:32:53.260Z,18.22
2018-07-03T07:35:22.669Z,17.42
2018-07-03T07:37:52.035Z,16.36
2018-07-03T07:40:21.424Z,16.36
2018-07-03T07:42:50.819Z,17.81
2018-07-03T07:45:20.177Z,19.63
2018-07-03T07:47:49.729Z,24.79
2018-07-03T07:50:18.992Z,24.03
2018-07-03T07:52:48.383Z,20.90
2018-07-03T07:55:17.759Z,22.35
2018-07-03T07:57:47.158Z,23.52
2018-07-03T08:00:16.543Z,18.22
2018-07-03T08:02:45.911Z,20.33
2018-07-03T08:05:15.283Z,21.54
2018-07-03T08:07:44.530Z,21.12
2018-07-03T08:10:13.859Z,25.68
2018-07-03T08:12:43.158Z,26.26
2018-07-03T08:15:12.552Z,27.99
2018-07-03T08:17:41.907Z,24.56
2018-07-03T08:20:11.238Z,20.16
2018-07-03T08:22:40.611Z,23.77
2018-07-03T08:25:09.971Z,22.15
2018-07-03T08:27:39.431Z,21.75
2018-07-03T08:30:09.254Z,23.74
2018-07-03T08:32:38.558Z,23.13
2018-07-03T08:35:08.145Z,24.10
2018-07-03T08:37:37.562Z,25.13
2018-07-03T08:40:07.960Z,23.22
2018-07-03T08:42:37.765Z,24.85
2018-07-03T08:45:07.620Z,27.90
2018-07-03T08:47:36.962Z,29.41
2018-07-03T08:50:06.389Z,30.40
2018-07-03T08:52:35.708Z,29.27
2018-07-03T08:55:05.103Z,30.04
2018-07-03T08:57:34.467Z,24.62
2018-07-03T09:00:03.895Z,23.77
2018-07-03T09:02:33.200Z,22.77
2018-07-03T09:05:02.620Z,24.32
2018-07-03T09:07:31.920Z,23.86
2018-07-03T09:10:01.261Z,22.31
2018-07-03T09:12:30.942Z,21.78
2018-07-03T09:15:00.303Z,25.91
2018-07-03T09:17:30.249Z,26.21
2018-07-03T09:20:01.046Z,27.32
2018-07-03T09:22:31.238Z,29.17
2018-07-03T09:25:00.616Z,28.19
2018-07-03T09:27:30.019Z,26.28
2018-07-03T09:29:59.410Z,26.36
2018-07-03T09:32:28.795Z,23.50
2018-07-03T09:34:58.258Z,26.30
2018-07-03T09:37:27.630Z,21.20
2018-07-03T09:39:57.022Z,25.19
2018-07-03T09:42:26.430Z,19.27
2018-07-03T09:44:55.796Z,18.05
2018-07-03T09:47:25.201Z,19.73
2018-07-03T09:49:54.599Z,18.28
2018-07-03T09:52:24.065Z,16.00
2018-07-03T09:54:53.402Z,18.96
2018-07-03T09:57:22.720Z,18.15
2018-07-03T09:59:52.091Z,17.72
2018-07-03T10:02:21.508Z,23.62
2018-07-03T10:04:50.831Z,23.91
2018-07-03T10:07:20.146Z,26.24
2018-07-03T10:09:50.160Z,26.66
2018-07-03T10:12:19.590Z,26.14
2018-07-03T10:14:48.938Z,26.80
2018-07-03T10:17:18.255Z,29.10
2018-07-03T10:19:47.643Z,26.29
2018-07-03T10:22:16.957Z,27.45
2018-07-03T10:24:46.261Z,26.53
2018-07-03T10:27:15.604Z,27.66
2018-07-03T10:29:45.066Z,30.07
2018-07-03T10:32:14.595Z,29.88
2018-07-03T10:34:43.939Z,30.49
2018-07-03T10:37:13.380Z,29.81
2018-07-03T10:39:42.794Z,31.90
2018-07-03T10:42:12.165Z,34.36
2018-07-03T10:44:41.517Z,33.83
2018-07-03T10:47:10.860Z,35.09
2018-07-03T10:49:40.148Z,34.88
2018-07-03T10:52:09.466Z,35.47
2018-07-03T10:54:39.038Z,33.93
2018-07-03T10:57:09.806Z,35.63
2018-07-03T10:59:39.183Z,32.80
2018-07-03T11:02:08.707Z,32.94
2018-07-03T11:04:38.138Z,30.64
2018-07-03T11:07:08.141Z,33.70
2018-07-03T11:09:37.815Z,35.73
2018-07-03T11:12:07.178Z,35.69
2018-07-03T11:14:36.558Z,36.50
2018-07-03T11:17:06.129Z,36.27
2018-07-03T11:19:36.311Z,33.70
2018-07-03T11:22:05.624Z,35.75
2018-07-03T11:24:34.964Z,36.41
2018-07-03T11:27:04.476Z,35.57
2018-07-03T11:29:33.801Z,35.09
2018-07-03T11:32:04.345Z,35.38
2018-07-03T11:34:33.664Z,33.13
2018-07-03T11:37:03.007Z,32.90
2018-07-03T11:39:32.373Z,33.21
2018-07-03T11:42:01.746Z,33.23
2018-07-03T11:44:31.082Z,33.31
2018-07-03T11:47:00.472Z,34.63
2018-07-03T11:49:29.831Z,37.11
2018-07-03T11:51:59.136Z,34.00
2018-07-03T11:54:28.425Z,33.04
2018-07-03T11:56:57.746Z,34.26
2018-07-03T11:59:27.077Z,33.47
2018-07-03T12:01:56.498Z,33.48
2018-07-03T12:04:25.857Z,35.02
2018-07-03T12:06:55.831Z,35.35
2018-07-03T12:09:25.269Z,46.71
2018-07-03T12:11:55.282Z,52.73
2018-07-03T12:14:24.652Z,54.52
2018-07-03T12:16:54.056Z,57.76
2018-07-03T12:19:23.402Z,57.61
2018-07-03T12:21:52.677Z,56.28
2018-07-03T12:24:22.032Z,56.05
2018-07-03T12:26:51.464Z,57.11
2018-07-03T12:29:20.795Z,57.27
2018-07-03T12:31:50.109Z,57.64
2018-07-03T12:34:19.698Z,56.91
2018-07-03T12:36:49.044Z,56.39
2018-07-03T12:39:18.385Z,55.73
2018-07-03T12:41:47.712Z,57.62
2018-07-03T12:44:17.073Z,56.92
2018-07-03T12:46:46.453Z,55.30
2018-07-03T12:49:15.827Z,56.99
2018-07-03T12:51:45.122Z,58.47
2018-07-03T12:54:14.441Z,55.92
2018-07-03T12:56:43.806Z,56.66
2018-07-03T12:59:13.192Z,57.00
2018-07-03T13:01:42.521Z,58.17
2018-07-03T13:04:11.894Z,56.44
2018-07-03T13:06:41.515Z,55.54
2018-07-03T13:09:12.098Z,55.94
2018-07-03T13:11:41.807Z,54.92
2018-07-03T13:14:11.268Z,56.76
2018-07-03T13:16:40.611Z,54.39
2018-07-03T13:19:41.157Z,53.27
2018-07-03T13:22:11.050Z,54.01
2018-07-03T13:24:40.127Z,52.92
2018-07-03T13:27:09.480Z,53.14
2018-07-03T13:29:38.810Z,57.19
2018-07-03T13:32:08.198Z,57.02
2018-07-03T13:34:38.794Z,55.21
2018-07-03T13:37:08.347Z,54.64
2018-07-03T13:39:37.614Z,52.91
2018-07-03T13:42:07.001Z,54.25
2018-07-03T13:44:36.327Z,54.53
2018-07-03T13:47:05.739Z,55.83
2018-07-03T13:49:35.097Z,55.20
2018-07-03T13:52:04.417Z,55.26
2018-07-03T13:54:33.788Z,56.11
2018-07-03T13:57:03.115Z,55.86
2018-07-03T13:59:32.450Z,54.27
2018-07-03T14:02:01.815Z,55.15
2018-07-03T14:04:31.125Z,54.87
2018-07-03T14:07:00.422Z,53.46
2018-07-03T14:09:29.736Z,53.80
2018-07-03T14:11:59.044Z,53.56
2018-07-03T14:14:28.346Z,54.61
2018-07-03T14:16:57.660Z,54.33
2018-07-03T14:19:27.041Z,54.07
2018-07-03T14:21:56.431Z,54.48
2018-07-03T14:24:25.820Z,57.80
2018-07-03T14:26:55.189Z,54.73
2018-07-03T14:29:24.758Z,55.14
2018-07-03T14:31:54.141Z,57.42
2018-07-03T14:34:23.432Z,58.22
2018-07-03T14:36:52.886Z,53.21
2018-07-03T14:39:22.265Z,50.40
2018-07-03T14:41:51.590Z,53.67
2018-07-03T14:44:20.976Z,53.21
2018-07-03T14:46:50.299Z,50.12
2018-07-03T14:49:19.714Z,52.22
2018-07-03T14:51:49.015Z,51.95
2018-07-03T14:54:18.298Z,50.92
2018-07-03T14:56:47.665Z,51.75
2018-07-03T14:59:17.043Z,50.51
2018-07-03T15:01:46.405Z,50.34
2018-07-03T15:04:15.721Z,48.52
2018-07-03T15:06:45.018Z,50.01
2018-07-03T15:09:16.356Z,49.56
2018-07-03T15:11:46.018Z,49.33
2018-07-03T15:14:15.792Z,48.74
2018-07-03T15:16:45.285Z,48.89
2018-07-03T15:19:19.745Z,49.51
2018-07-03T15:21:49.089Z,49.74
2018-07-03T15:24:18.405Z,51.77
2018-07-03T15:26:47.771Z,50.85
2018-07-03T15:32:16.490Z,50.45
2018-07-03T15:34:45.819Z,49.45
2018-07-03T15:37:15.198Z,50.86
2018-07-03T15:39:44.751Z,52.18
2018-07-03T15:42:14.092Z,50.12
2018-07-03T15:45:00.160Z,50.76
2018-07-03T15:47:29.525Z,50.61
2018-07-03T15:49:58.806Z,50.51
2018-07-03T15:52:28.106Z,48.70
2018-07-03T15:54:57.659Z,48.23
2018-07-03T15:57:27.115Z,49.22
2018-07-03T15:59:56.442Z,50.09
2018-07-03T16:02:26.139Z,48.64
2018-07-03T16:05:14.823Z,48.12
2018-07-03T16:07:58.929Z,49.71
2018-07-03T16:10:28.277Z,49.34
2018-07-03T16:12:57.986Z,51.07
2018-07-03T16:15:27.392Z,51.46
2018-07-03T16:17:56.859Z,51.09
2018-07-03T16:20:31.357Z,50.90
2018-07-03T16:23:00.703Z,51.13
2018-07-03T16:25:30.108Z,51.04
2018-07-03T16:27:59.315Z,51.67
2018-07-03T16:30:28.679Z,53.33
2018-07-03T16:32:57.958Z,53.35
2018-07-03T16:35:27.263Z,54.59
2018-07-03T16:37:56.875Z,54.76
2018-07-03T16:40:27.274Z,55.00
2018-07-03T16:42:56.692Z,54.48
2018-07-03T16:45:26.062Z,54.68
2018-07-03T16:47:55.338Z,53.33
2018-07-03T16:50:24.704Z,54.64
2018-07-03T16:52:54.058Z,54.28
2018-07-03T16:55:23.479Z,54.22
2018-07-03T16:57:52.860Z,53.46
2018-07-03T17:00:28.798Z,52.52
2018-07-03T17:02:58.374Z,53.62
2018-07-03T17:05:27.703Z,53.85
2018-07-03T17:07:57.135Z,54.14
2018-07-03T17:10:26.535Z,54.62
2018-07-03T17:12:56.005Z,54.31
2018-07-03T17:15:25.042Z,53.21
2018-07-03T17:17:57.114Z,52.74
2018-07-03T17:20:26.657Z,52.78
2018-07-03T17:22:56.103Z,53.66
2018-07-03T17:25:25.435Z,53.95
2018-07-03T17:27:54.783Z,55.07
2018-07-03T17:30:24.337Z,55.43
2018-07-03T17:32:54.975Z,54.33
2018-07-03T17:35:24.382Z,55.56
2018-07-03T17:37:54.075Z,55.29
2018-07-03T17:40:40.341Z,56.20
2018-07-03T17:44:24.913Z,55.84
2018-07-03T17:46:54.363Z,57.29
2018-07-03T17:49:23.779Z,55.59
2018-07-03T17:51:53.280Z,58.24
2018-07-03T17:54:22.728Z,57.70
2018-07-03T17:56:52.097Z,56.49
2018-07-03T17:59:22.676Z,57.21
2018-07-03T18:01:52.100Z,57.24
2018-07-03T18:04:21.403Z,57.49
2018-07-03T18:06:50.919Z,57.72
2018-07-03T18:09:20.364Z,58.21
2018-07-03T18:11:49.959Z,58.72
2018-07-03T18:14:19.554Z,59.49
2018-07-03T18:16:49.094Z,59.58
2018-07-03T18:19:23.666Z,59.71
2018-07-03T18:21:53.437Z,60.53
2018-07-03T18:24:23.287Z,60.84
2018-07-03T18:26:52.623Z,60.83
2018-07-03T18:29:22.287Z,60.48
2018-07-03T18:32:06.202Z,61.16
2018-07-03T18:34:35.712Z,62.17
2018-07-03T18:37:05.084Z,63.28
2018-07-03T18:39:34.424Z,64.59
2018-07-03T18:42:04.101Z,64.07
2018-07-03T18:44:34.158Z,64.29
2018-07-03T18:47:03.634Z,65.60
2018-07-03T18:49:33.026Z,65.88
2018-07-03T18:52:02.520Z,66.62
2018-07-03T18:54:32.290Z,67.48
2018-07-03T18:57:02.672Z,69.03
2018-07-03T18:59:32.156Z,70.77
2018-07-03T19:02:01.613Z,73.20
2018-07-03T19:04:30.947Z,74.29
2018-07-03T19:07:00.304Z,73.92
2018-07-03T19:09:30.020Z,72.99
2018-07-03T19:11:59.624Z,73.39
2018-07-03T19:14:28.922Z,74.36
2018-07-03T19:16:58.295Z,76.10
2018-07-03T19:19:27.707Z,77.48
2018-07-03T19:21:57.034Z,79.06
2018-07-03T19:24:26.386Z,79.13
2018-07-03T19:26:55.747Z,80.15
2018-07-03T19:29:25.225Z,79.00
2018-07-03T19:31:54.562Z,78.08
2018-07-03T19:34:24.125Z,79.03
2018-07-03T19:36:53.425Z,79.29
2018-07-03T19:39:22.864Z,79.46
2018-07-03T19:41:52.503Z,79.70
2018-07-03T19:44:21.907Z,80.08
2018-07-03T19:46:51.357Z,81.25
2018-07-03T19:49:20.759Z,82.94
2018-07-03T19:51:50.048Z,81.13
2018-07-03T19:54:19.356Z,80.69
2018-07-03T19:56:48.650Z,80.50
2018-07-03T19:59:17.955Z,80.81
2018-07-03T20:01:47.261Z,82.03
2018-07-03T20:04:16.692Z,82.37
2018-07-03T20:06:46.016Z,84.16
2018-07-03T20:09:15.315Z,86.20
2018-07-03T20:11:44.759Z,86.38
2018-07-03T20:14:14.063Z,86.23
2018-07-03T20:16:43.492Z,86.77
2018-07-03T20:19:15.036Z,87.37
2018-07-03T20:21:46.059Z,87.40
2018-07-03T20:24:16.905Z,87.28
2018-07-03T20:26:46.255Z,85.57
2018-07-03T20:29:15.546Z,84.53
2018-07-03T20:31:44.890Z,82.58
2018-07-03T20:34:14.325Z,84.30
2018-07-03T20:36:44.572Z,84.36
2018-07-03T20:39:13.964Z,83.49
2018-07-03T20:41:43.323Z,83.79
2018-07-03T20:44:12.660Z,84.19
2018-07-03T20:46:41.990Z,85.09
2018-07-03T20:49:11.308Z,84.41
2018-07-03T20:51:40.673Z,85.94
2018-07-03T20:54:10.004Z,86.94
2018-07-03T20:56:39.311Z,87.54
2018-07-03T20:59:08.688Z,88.60
2018-07-03T21:01:38.048Z,88.66
2018-07-03T21:04:07.581Z,89.03
2018-07-03T21:06:36.912Z,89.57
2018-07-03T21:09:08.433Z,89.97
2018-07-03T21:11:37.848Z,89.68
2018-07-03T21:14:07.415Z,90.47
2018-07-03T21:16:36.675Z,90.39
2018-07-03T21:19:06.186Z,91.41
2018-07-03T21:21:35.568Z,91.48
2018-07-03T21:24:05.104Z,91.97
2018-07-03T21:26:35.390Z,92.00
2018-07-03T21:29:08.565Z,92.33
2018-07-03T21:31:37.862Z,92.23
2018-07-03T21:34:07.381Z,92.51
2018-07-03T21:36:36.652Z,92.68
2018-07-03T21:39:07.626Z,92.75
2018-07-03T21:41:36.920Z,93.13
2018-07-03T21:44:06.310Z,92.87
2018-07-03T21:46:35.669Z,92.98
2018-07-03T21:49:04.989Z,91.86
2018-07-03T21:51:34.269Z,89.80
2018-07-03T21:54:03.556Z,90.57
2018-07-03T21:56:32.911Z,91.63
2018-07-03T21:59:02.277Z,92.13
2018-07-03T22:01:31.698Z,92.76
2018-07-03T22:04:01.072Z,92.87
2018-07-03T22:06:30.429Z,93.60
2018-07-03T22:08:59.714Z,93.29
2018-07-03T22:11:29.017Z,93.25
2018-07-03T22:13:58.146Z,93.28
2018-07-03T22:16:27.449Z,93.09
2018-07-03T22:18:56.869Z,91.59
2018-07-03T22:21:26.182Z,89.44
2018-07-03T22:23:55.526Z,89.95
2018-07-03T22:26:24.823Z,90.89
2018-07-03T22:28:54.151Z,89.77
2018-07-03T22:31:23.463Z,90.73
2018-07-03T22:33:52.768Z,90.96
2018-07-03T22:36:22.090Z,90.06
2018-07-03T22:38:51.364Z,90.56
2018-07-03T22:41:20.795Z,90.44
2018-07-03T22:43:50.115Z,91.24
2018-07-03T22:46:19.506Z,91.24
2018-07-03T22:48:48.843Z,91.49
2018-07-03T22:51:18.244Z,91.39
2018-07-03T22:53:47.544Z,92.02
2018-07-03T22:56:16.834Z,91.77
2018-07-03T22:58:46.098Z,91.01
2018-07-03T23:01:15.390Z,92.02
2018-07-03T23:03:44.666Z,92.47
2018-07-03T23:06:14.028Z,92.68
2018-07-03T23:08:43.379Z,92.64
2018-07-03T23:11:12.650Z,92.81
2018-07-03T23:13:41.999Z,92.36
2018-07-03T23:16:11.380Z,92.44
2018-07-03T23:18:40.666Z,92.05
2018-07-03T23:21:09.985Z,92.21
2018-07-03T23:23:39.285Z,92.14
2018-07-03T23:26:08.664Z,92.38
2018-07-03T23:28:37.954Z,91.91
2018-07-03T23:31:07.367Z,92.45
2018-07-03T23:33:36.651Z,91.73
2018-07-03T23:36:06.303Z,92.02
2018-07-03T23:38:35.645Z,91.91
2018-07-03T23:41:05.702Z,92.76
2018-07-03T23:43:35.058Z,93.35
2018-07-03T23:46:02.790Z,93.43
2018-07-03T23:48:48.930Z,93.92
2018-07-03T23:51:35.060Z,93.81
2018-07-03T23:54:21.026Z,93.59
2018-07-03T23:57:07.238Z,93.38
2018-07-03T23:59:53.454Z,92.19
